Time;durP1;ratioP1;P1;durP2;ratioP2;P2;SDS_P1;SDS_P2;PMS_P1;PMS_P2;Temp;Humidity;BMP_temperature;BMP_pressure;BME280_temperature;BME280_humidity;BME280_pressure;Samples;Min_cycle;Max_cycle;Signal;HPM_P1;HPM_P2
2023/05/03 00:02:10;;;;;;;;;;;20.70;35.20;;;;;;21170796;28;20388;-55
2023/05/03 00:12:12;;;;;;;;;;;20.50;35.80;;;;;;21169776;28;20274;-55
2023/05/03 00:22:13;;;;;;;;;;;20.50;35.70;;;;;;21167332;28;19938;-56
2023/05/03 00:32:14;;;;;;;;;;;20.80;35.40;;;;;;21168800;28;19924;-56
2023/05/03 00:42:16;;;;;;;;;;;20.90;35.70;;;;;;21167746;28;19976;-55
2023/05/03 00:52:17;;;;;;;;;;;20.90;33.60;;;;;;21167066;28;20048;-55
2023/05/03 01:02:18;;;;;;;;;;;21.10;32.40;;;;;;21166727;28;19924;-55
2023/05/03 01:12:29;;;;;;;;;;;21.10;31.50;;;;;;21165707;28;19946;-55
2023/05/03 01:22:30;;;;;;;;;;;21.20;31.50;;;;;;21163863;28;19928;-55
2023/05/03 01:32:46;;;;;;;;;;;21.20;31.70;;;;;;21164439;28;19923;-55
2023/05/03 01:42:49;;;;;;;;;;;21.10;32.10;;;;;;21163048;28;20018;-55
2023/05/03 01:52:52;;;;;;;;;;;21.00;32.50;;;;;;21162941;28;19935;-54
2023/05/03 02:02:54;;;;;;;;;;;20.90;33.60;;;;;;21163350;28;20293;-54
2023/05/03 02:12:56;;;;;;;;;;;20.80;34.10;;;;;;21163337;28;20365;-56
2023/05/03 02:22:57;;;;;;;;;;;20.70;34.80;;;;;;21161707;28;20437;-55
2023/05/03 02:32:59;;;;;;;;;;;20.70;35.20;;;;;;21162749;28;19931;-56
2023/05/03 02:43:01;;;;;;;;;;;20.70;35.40;;;;;;21167960;28;19954;-55
2023/05/03 02:53:03;;;;;;;;;;;20.40;36.50;;;;;;21175500;28;19924;-54
2023/05/03 03:03:04;;;;;;;;;;;19.90;38.00;;;;;;21174565;28;19931;-54
2023/05/03 03:13:05;;;;;;;;;;;19.60;38.20;;;;;;21175198;28;19924;-54
2023/05/03 03:23:07;;;;;;;;;;;19.30;38.80;;;;;;21188888;27;20336;-55
2023/05/03 03:33:08;;;;;;;;;;;19.20;38.90;;;;;;21173616;28;19928;-54
2023/05/03 03:43:10;;;;;;;;;;;19.10;39.20;;;;;;21172764;28;19924;-54
2023/05/03 03:53:11;;;;;;;;;;;19.10;39.20;;;;;;21170244;28;19924;-55
2023/05/03 04:03:12;;;;;;;;;;;18.90;39.50;;;;;;21170576;28;19947;-55
2023/05/03 04:13:14;;;;;;;;;;;18.70;39.40;;;;;;21170106;28;19924;-55
2023/05/03 04:23:15;;;;;;;;;;;18.50;39.50;;;;;;21167952;28;19930;-54
2023/05/03 04:33:16;;;;;;;;;;;18.40;39.70;;;;;;21168695;28;20045;-55
2023/05/03 04:43:18;;;;;;;;;;;18.30;40.10;;;;;;21167535;28;20014;-55
2023/05/03 04:53:19;;;;;;;;;;;18.30;40.30;;;;;;21165617;28;19924;-55
2023/05/03 05:03:20;;;;;;;;;;;18.30;40.30;;;;;;21164041;28;19934;-55
2023/05/03 05:13:22;;;;;;;;;;;18.40;40.40;;;;;;21164358;28;19928;-55
2023/05/03 05:23:23;;;;;;;;;;;18.40;40.60;;;;;;21162706;28;20281;-54
2023/05/03 05:33:24;;;;;;;;;;;18.40;40.70;;;;;;21164506;28;19928;-54
2023/05/03 05:43:25;;;;;;;;;;;18.40;40.90;;;;;;21163137;28;19935;-54
2023/05/03 05:53:27;;;;;;;;;;;18.30;41.20;;;;;;21163874;28;19924;-56
2023/05/03 06:03:28;;;;;;;;;;;18.60;40.70;;;;;;21163661;28;20269;-56
2023/05/03 06:13:32;;;;;;;;;;;18.70;38.90;;;;;;21161019;28;19931;-54
2023/05/03 06:23:34;;;;;;;;;;;19.00;36.70;;;;;;21176086;28;19924;-55
2023/05/03 06:33:35;;;;;;;;;;;19.20;35.20;;;;;;21177063;28;19927;-58
2023/05/03 06:43:36;;;;;;;;;;;19.50;34.90;;;;;;21176129;28;20295;-53
2023/05/03 06:53:38;;;;;;;;;;;20.20;33.80;;;;;;21174658;28;19928;-56
2023/05/03 07:03:39;;;;;;;;;;;20.60;34.20;;;;;;21174524;28;20024;-55
2023/05/03 07:13:40;;;;;;;;;;;20.90;33.70;;;;;;21173644;28;19927;-55
2023/05/03 07:23:43;;;;;;;;;;;21.10;33.40;;;;;;21173781;28;19977;-55
2023/05/03 07:33:44;;;;;;;;;;;21.50;33.00;;;;;;21171731;28;20393;-55
2023/05/03 07:43:46;;;;;;;;;;;22.00;32.30;;;;;;21170928;28;19923;-56
2023/05/03 07:53:47;;;;;;;;;;;22.30;31.30;;;;;;21170814;28;20398;-57
2023/05/03 08:03:49;;;;;;;;;;;22.70;34.80;;;;;;21168408;28;19924;-57
2023/05/03 08:13:50;;;;;;;;;;;22.60;33.80;;;;;;21168855;28;20489;-61
2023/05/03 08:23:52;;;;;;;;;;;22.60;34.50;;;;;;21169070;28;19931;-60
2023/05/03 08:33:53;;;;;;;;;;;22.90;35.50;;;;;;21167453;28;20376;-57
2023/05/03 08:43:55;;;;;;;;;;;23.00;34.50;;;;;;21164722;28;19924;-58
2023/05/03 08:53:56;;;;;;;;;;;23.10;33.60;;;;;;21163751;28;19924;-56
2023/05/03 09:03:58;;;;;;;;;;;23.20;33.00;;;;;;21163970;28;19923;-56
2023/05/03 09:14:13;;;;;;;;;;;23.40;33.50;;;;;;21162678;28;20326;-56
2023/05/03 09:24:18;;;;;;;;;;;23.70;33.10;;;;;;20994593;28;20015;-58
2023/05/03 09:34:20;;;;;;;;;;;24.00;30.60;;;;;;20995930;28;20388;-57
2023/05/03 09:44:41;;;;;;;;;;;24.00;30.00;;;;;;20985486;28;19929;-58
2023/05/03 09:54:42;;;;;;;;;;;24.10;30.80;;;;;;20989024;28;20301;-59
2023/05/03 10:04:47;;;;;;;;;;;24.20;29.90;;;;;;21004053;28;19924;-57
2023/05/03 10:14:50;;;;;;;;;;;23.80;30.80;;;;;;21015134;27;19981;-55
2023/05/03 10:25:01;;;;;;;;;;;24.10;30.20;;;;;;21172692;27;19924;-56
2023/05/03 10:35:08;;;;;;;;;;;24.20;29.80;;;;;;21217461;27;20267;-57
2023/05/03 10:45:19;;;;;;;;;;;24.50;29.90;;;;;;21174029;28;19924;-55
2023/05/03 10:55:23;;;;;;;;;;;24.60;29.70;;;;;;21174325;28;19931;-54
2023/05/03 11:05:26;;;;;;;;;;;24.70;29.30;;;;;;21146992;27;19923;-55
2023/05/03 11:15:28;;;;;;;;;;;24.90;29.00;;;;;;21161000;28;20304;-55
2023/05/03 11:25:29;;;;;;;;;;;25.10;28.10;;;;;;21161342;28;19984;-54
2023/05/03 11:35:31;;;;;;;;;;;25.30;28.60;;;;;;21156539;28;19928;-54
2023/05/03 11:45:46;;;;;;;;;;;25.70;26.70;;;;;;21168951;28;20400;-57
2023/05/03 11:55:49;;;;;;;;;;;26.00;26.10;;;;;;21169783;28;20296;-55
2023/05/03 12:05:54;;;;;;;;;;;26.10;25.80;;;;;;21167782;28;19923;-55
2023/05/03 12:15:59;;;;;;;;;;;26.50;25.80;;;;;;21166402;28;19969;-55
2023/05/03 12:26:01;;;;;;;;;;;26.70;25.80;;;;;;21165980;28;19971;-55
2023/05/03 12:36:02;;;;;;;;;;;26.70;25.60;;;;;;21164588;28;19966;-55
2023/05/03 12:46:03;;;;;;;;;;;26.70;25.20;;;;;;21164002;28;19924;-54
2023/05/03 12:56:05;;;;;;;;;;;26.90;25.40;;;;;;21163295;28;19924;-55
2023/05/03 13:06:07;;;;;;;;;;;27.10;25.00;;;;;;21162599;28;20368;-56
2023/05/03 13:16:08;;;;;;;;;;;27.10;25.20;;;;;;21162066;28;19959;-56
2023/05/03 13:26:10;;;;;;;;;;;27.60;24.60;;;;;;21161249;28;20411;-57
2023/05/03 13:36:11;;;;;;;;;;;27.80;24.00;;;;;;21162032;28;20037;-54
2023/05/03 13:46:13;;;;;;;;;;;28.10;23.70;;;;;;21161566;28;19924;-54
2023/05/03 13:56:16;;;;;;;;;;;28.20;23.50;;;;;;21159448;28;19924;-54
2023/05/03 14:06:18;;;;;;;;;;;28.30;23.20;;;;;;21161815;28;19923;-57
2023/05/03 14:16:20;;;;;;;;;;;28.40;23.50;;;;;;21160504;28;20016;-54
2023/05/03 14:26:23;;;;;;;;;;;28.30;23.60;;;;;;21159852;28;19974;-56
2023/05/03 14:36:28;;;;;;;;;;;28.20;23.70;;;;;;21162814;28;20281;-57
2023/05/03 14:46:29;;;;;;;;;;;28.10;23.40;;;;;;21177075;28;19968;-55
2023/05/03 14:56:31;;;;;;;;;;;28.30;23.20;;;;;;21173208;28;19927;-55
2023/05/03 15:06:37;;;;;;;;;;;28.60;22.70;;;;;;21174185;28;19980;-55
2023/05/03 15:16:39;;;;;;;;;;;28.90;21.70;;;;;;21172432;28;19928;-56
2023/05/03 15:26:40;;;;;;;;;;;29.00;18.70;;;;;;21171117;28;19923;-55
2023/05/03 15:36:41;;;;;;;;;;;29.20;18.50;;;;;;21171389;28;20135;-57
2023/05/03 15:46:43;;;;;;;;;;;29.50;18.00;;;;;;21169204;28;19923;-55
2023/05/03 15:56:44;;;;;;;;;;;29.60;18.90;;;;;;21168330;28;20447;-57
2023/05/03 16:06:46;;;;;;;;;;;29.70;18.40;;;;;;21165613;28;19931;-61
2023/05/03 16:16:47;;;;;;;;;;;29.60;18.20;;;;;;21166103;28;19924;-61
2023/05/03 16:26:51;;;;;;;;;;;30.10;17.20;;;;;;21165452;28;19947;-58
2023/05/03 16:36:52;;;;;;;;;;;29.90;17.40;;;;;;21163237;28;19930;-57
2023/05/03 16:46:54;;;;;;;;;;;30.10;19.00;;;;;;21164017;28;19924;-57
2023/05/03 16:56:55;;;;;;;;;;;30.30;19.70;;;;;;21164763;28;20433;-56
2023/05/03 17:06:57;;;;;;;;;;;30.10;18.80;;;;;;21163421;28;19924;-59
2023/05/03 17:16:58;;;;;;;;;;;29.90;18.00;;;;;;21144425;28;19924;-60
2023/05/03 17:27:00;;;;;;;;;;;29.70;18.00;;;;;;21163136;28;19930;-54
2023/05/03 17:37:04;;;;;;;;;;;29.50;18.00;;;;;;21161470;28;20384;-55
2023/05/03 17:47:05;;;;;;;;;;;29.40;17.60;;;;;;21162951;28;20368;-56
2023/05/03 17:57:07;;;;;;;;;;;29.30;18.30;;;;;;21162281;28;20045;-54
2023/05/03 18:07:08;;;;;;;;;;;29.20;17.60;;;;;;21162140;28;19923;-55
2023/05/03 18:17:10;;;;;;;;;;;29.10;17.20;;;;;;21173397;28;20331;-56
2023/05/03 18:27:11;;;;;;;;;;;28.90;17.00;;;;;;21175477;28;19928;-53
2023/05/03 18:37:13;;;;;;;;;;;28.80;17.20;;;;;;21176597;28;19924;-58
2023/05/03 18:47:19;;;;;;;;;;;28.50;17.50;;;;;;21176600;28;19923;-58
2023/05/03 18:57:20;;;;;;;;;;;28.20;18.00;;;;;;21174293;28;19923;-57
2023/05/03 19:07:22;;;;;;;;;;;28.10;18.20;;;;;;21174649;28;19927;-55
2023/05/03 19:17:23;;;;;;;;;;;27.80;18.90;;;;;;21173175;28;19924;-55
2023/05/03 19:27:25;;;;;;;;;;;27.60;20.30;;;;;;21172347;28;19947;-54
2023/05/03 19:37:26;;;;;;;;;;;27.30;21.30;;;;;;21171168;28;19928;-55
2023/05/03 19:47:27;;;;;;;;;;;27.10;21.70;;;;;;21171548;28;19924;-54
2023/05/03 19:57:28;;;;;;;;;;;26.90;22.10;;;;;;21169461;28;19969;-56
2023/05/03 20:07:31;;;;;;;;;;;26.60;22.40;;;;;;21168366;28;19930;-55
2023/05/03 20:17:32;;;;;;;;;;;26.40;23.30;;;;;;21166907;28;19959;-56
2023/05/03 20:27:33;;;;;;;;;;;26.20;23.20;;;;;;21166088;28;19967;-55
2023/05/03 20:37:35;;;;;;;;;;;26.00;23.50;;;;;;21164746;28;19924;-53
2023/05/03 20:47:36;;;;;;;;;;;25.90;23.60;;;;;;21166680;28;20388;-56
2023/05/03 20:57:39;;;;;;;;;;;25.70;23.80;;;;;;21166017;28;19955;-56
2023/05/03 21:07:40;;;;;;;;;;;25.50;24.00;;;;;;21164140;28;19924;-54
2023/05/03 21:17:42;;;;;;;;;;;25.30;24.40;;;;;;21163331;28;19941;-56
2023/05/03 21:27:43;;;;;;;;;;;25.10;24.60;;;;;;21164535;28;20337;-55
2023/05/03 21:37:46;;;;;;;;;;;25.00;24.90;;;;;;21164370;28;20388;-54
2023/05/03 21:47:47;;;;;;;;;;;24.90;25.10;;;;;;21168806;28;19924;-55
2023/05/03 21:57:48;;;;;;;;;;;24.80;26.00;;;;;;21179661;28;19924;-56
2023/05/03 22:07:50;;;;;;;;;;;24.70;27.30;;;;;;21179965;28;20010;-55
2023/05/03 22:17:51;;;;;;;;;;;24.50;28.20;;;;;;21179785;28;19949;-55
2023/05/03 22:27:53;;;;;;;;;;;24.30;29.20;;;;;;21179363;28;20419;-54
2023/05/03 22:37:54;;;;;;;;;;;24.30;30.00;;;;;;21177999;28;19924;-54
2023/05/03 22:47:55;;;;;;;;;;;24.20;30.70;;;;;;21175761;28;19977;-54
2023/05/03 22:57:57;;;;;;;;;;;24.10;30.80;;;;;;21174049;28;19924;-54
2023/05/03 23:07:58;;;;;;;;;;;24.00;31.70;;;;;;21174430;28;19924;-54
2023/05/03 23:17:59;;;;;;;;;;;23.90;32.90;;;;;;21174185;28;19931;-54
2023/05/03 23:28:01;;;;;;;;;;;23.60;33.80;;;;;;21173114;28;19924;-54
2023/05/03 23:38:02;;;;;;;;;;;23.40;34.70;;;;;;21170599;28;19928;-54
2023/05/03 23:48:04;;;;;;;;;;;23.10;35.20;;;;;;21171481;28;19924;-54
2023/05/03 23:58:05;;;;;;;;;;;22.90;36.60;;;;;;21169161;28;19930;-55
